CheckWX is a tool to help pilots better visualize weather data.  It is not intended as a substitute for an official pre-flight weather briefing.

23:36:24 UTC

KGHG METAR
Marshfield Municipal - George Harlow Field Airport
Marshfield, Massachusetts, USA
Current

21 mins ago

KGHG 182315Z AUTO VRB03G11KT 10SM CLR 11/04 A2983 RMK AO2
Observed
Oct-18 @ 23:15 UTC
Wind
  • Variable at 3 KTS
  • Gusting to 11 KTS
Visibility
10 SM
Flight Rules
VFR
Cloud Levels
  • Clear skies
Temperature
11°C / 52°F
Dewpoint
C / 39°F
Humidity
62%
Altimeter
29.83" Hg
Pressure
1010.12 hPa
Previous

41 mins ago

KGHG 182255Z AUTO VRB05KT 10SM CLR 11/05 A2981 RMK AO2
Observed
Oct-18 @ 22:55 UTC
Wind
  • Variable at 5 KTS
Visibility
10 SM
Flight Rules
VFR
Cloud Levels
  • Clear skies
Temperature
11°C / 52°F
Dewpoint
C / 41°F
Humidity
67%
Altimeter
29.81" Hg
Pressure
1009.52 hPa
Previous

1 hour ago

KGHG 182235Z AUTO 30004KT 10SM CLR 12/05 A2980 RMK AO2
Observed
Oct-18 @ 22:35 UTC
Wind
  • 300° at 4 KTS
Visibility
10 SM
Flight Rules
VFR
Cloud Levels
  • Clear skies
Temperature
12°C / 54°F
Dewpoint
C / 41°F
Humidity
63%
Altimeter
29.8" Hg
Pressure
1009.12 hPa